Sea Brave — V7UC5 — position and weather

sailwx.info

Track history (hours):
 
Tides and Currents Weather Stations Pressure Air Temp Water Temp Dewpoint Dewpoint Depression Visibility Wind Speed Wind Dir Waves Ship Positions

Sea Brave

Last reported at 2018-Feb-10 17:21 UTC. Time now 2018-Feb-23 19:55 UTC.
Position N 31°59' E 030°52'.
Warning: this ship's position is 13 days out of date.

Length 177 m; draft 6 m.

Type: Cargo ship. MMSI: 538003930.

Date/timePositionNaut miles runAvg speedWind from/ knotsBaromVisibWave heightAir tempDewpointWater temp
2018-Feb-10 17:21N 31°59' E 030°52'410.5
2018-Feb-10 17:00N 32°00' E 030°48'3 5.8
2018-Feb-10 16:29N 32°01' E 030°44'5 9.6
2018-Feb-10 16:00N 32°03' E 030°39'11310.6
2018-Feb-10 05:19N 32°37' E 028°32'510.1
2018-Feb-10 04:50N 32°39' E 028°26'  
2018-Feb-06 00:03N 38°19' E 008°22'0 0.8
2018-Feb-06 00:00N 38°18' E 008°22'23 0.8
2018-Feb-04 21:01N 37°56' E 008°23'0 1.2
2018-Feb-04 20:57N 37°56' E 008°23'1 1.0
2018-Feb-04 20:00N 37°55' E 008°24'0 0.7
2018-Feb-04 19:30N 37°55' E 008°24'0 0.4
2018-Feb-04 19:01N 37°55' E 008°25'0 0.2
2018-Feb-04 18:31N 37°55' E 008°25'0 0.3
2018-Feb-04 18:00N 37°55' E 008°25'0 0.4
2018-Feb-04 17:30N 37°55' E 008°24'12 5.8
2018-Feb-04 15:29N 37°43' E 008°24'711.8
2018-Feb-04 14:52N 37°36' E 008°24'  
Track history (hours):
 
Tides and Currents Weather Stations Pressure Air Temp Water Temp Dewpoint Dewpoint Depression Visibility Wind Speed Wind Dir Waves Ship Positions

Sea Brave

Last reported at 2018-Feb-10 17:21 UTC. Time now 2018-Feb-23 19:55 UTC.
Position N 31°59' E 030°52'.
Warning: this ship's position is 13 days out of date.

Length 177 m; draft 6 m.

Type: Cargo ship. MMSI: 538003930.

Date/timePositionNaut miles runAvg speedWind from/ knotsBaromVisibWave heightAir tempDewpointWater temp
2018-Feb-10 17:21N 31°59' E 030°52'410.5
2018-Feb-10 17:00N 32°00' E 030°48'3 5.8
2018-Feb-10 16:29N 32°01' E 030°44'5 9.6
2018-Feb-10 16:00N 32°03' E 030°39'11310.6
2018-Feb-10 05:19N 32°37' E 028°32'510.1
2018-Feb-10 04:50N 32°39' E 028°26'  
2018-Feb-06 00:03N 38°19' E 008°22'0 0.8
2018-Feb-06 00:00N 38°18' E 008°22'23 0.8
2018-Feb-04 21:01N 37°56' E 008°23'0 1.2
2018-Feb-04 20:57N 37°56' E 008°23'1 1.0
2018-Feb-04 20:00N 37°55' E 008°24'0 0.7
2018-Feb-04 19:30N 37°55' E 008°24'0 0.4
2018-Feb-04 19:01N 37°55' E 008°25'0 0.2
2018-Feb-04 18:31N 37°55' E 008°25'0 0.3
2018-Feb-04 18:00N 37°55' E 008°25'0 0.4
2018-Feb-04 17:30N 37°55' E 008°24'12 5.8
2018-Feb-04 15:29N 37°43' E 008°24'711.8
2018-Feb-04 14:52N 37°36' E 008°24'  

Dump ship's entire track history